Time;durP1;ratioP1;P1;durP2;ratioP2;P2;SDS_P1;SDS_P2;PMS_P1;PMS_P2;Temp;Humidity;BMP_temperature;BMP_pressure;BME280_temperature;BME280_humidity;BME280_pressure;Samples;Min_cycle;Max_cycle;Signal;HPM_P1;HPM_P2
2021/11/11 00:00:31;;;;;;;37.95;18.08;;;;;;;0.14;86.80;102233.19;5019183;28;20035;-74
2021/11/11 00:02:58;;;;;;;34.83;17.58;;;;;;;0.10;86.78;102245.19;4998401;28;20035;-74
2021/11/11 00:05:25;;;;;;;37.90;17.00;;;;;;;0.07;87.02;102250.41;4984901;28;20411;-75
2021/11/11 00:07:51;;;;;;;36.55;16.83;;;;;;;0.08;87.19;102241.88;5001230;28;20289;-74
2021/11/11 00:10:18;;;;;;;31.98;16.83;;;;;;;0.10;87.29;102235.00;4921903;28;20043;-74
2021/11/11 00:12:46;;;;;;;34.47;17.70;;;;;;;0.10;87.28;102245.19;4930233;28;20036;-74
2021/11/11 00:15:13;;;;;;;36.30;17.42;;;;;;;0.08;86.89;102246.16;5002899;28;20047;-73
2021/11/11 00:17:42;;;;;;;34.90;16.70;;;;;;;0.06;86.83;102238.53;5007181;28;20066;-75
2021/11/11 00:20:09;;;;;;;36.05;17.75;;;;;;;0.07;87.28;102239.38;5018194;28;20051;-75
2021/11/11 00:22:36;;;;;;;37.60;17.08;;;;;;;0.05;87.10;102225.84;4923754;28;20101;-74
2021/11/11 00:25:03;;;;;;;33.45;18.08;;;;;;;0.04;87.18;102232.66;5003768;28;20039;-74
2021/11/11 00:27:28;;;;;;;33.78;17.08;;;;;;;-0.02;86.15;102226.06;4924929;28;20038;-74
2021/11/11 00:29:54;;;;;;;34.03;17.23;;;;;;;-0.10;86.63;102222.09;4941431;28;20027;-74
2021/11/11 00:32:19;;;;;;;36.80;17.48;;;;;;;-0.15;86.27;102209.50;5002584;28;20566;-75
2021/11/11 00:34:46;;;;;;;40.63;17.75;;;;;;;-0.21;86.50;102214.78;4930477;28;20031;-75
2021/11/11 00:37:11;;;;;;;43.33;17.80;;;;;;;-0.27;87.19;102205.63;5008407;28;20113;-74
2021/11/11 00:39:37;;;;;;;38.83;16.35;;;;;;;-0.31;87.69;102206.63;5018775;28;20038;-74
2021/11/11 00:42:03;;;;;;;37.72;16.27;;;;;;;-0.34;88.07;102203.34;5006433;28;20035;-74
2021/11/11 00:44:28;;;;;;;35.25;16.98;;;;;;;-0.34;88.03;102205.91;4926981;28;20509;-75
2021/11/11 00:46:54;;;;;;;37.88;17.42;;;;;;;-0.33;88.05;102208.41;5012210;28;20033;-73
2021/11/11 00:49:20;;;;;;;33.08;17.30;;;;;;;-0.30;88.19;102208.31;4937805;28;20515;-74
2021/11/11 00:51:45;;;;;;;36.08;16.70;;;;;;;-0.26;88.12;102201.41;5009695;28;20035;-73
2021/11/11 00:54:12;;;;;;;34.58;16.52;;;;;;;-0.24;88.17;102207.28;5007906;28;20582;-74
2021/11/11 00:56:38;;;;;;;38.67;17.45;;;;;;;-0.25;87.58;102197.94;5010937;28;20028;-74
2021/11/11 00:59:06;;;;;;;38.08;18.73;;;;;;;-0.26;87.93;102198.84;4980432;28;20500;-75
2021/11/11 01:01:31;;;;;;;46.47;20.90;;;;;;;-0.30;87.56;102198.13;4988600;28;20043;-74
2021/11/11 01:04:00;;;;;;;33.70;17.52;;;;;;;-0.32;88.12;102197.34;5006397;28;20020;-74
2021/11/11 01:06:27;;;;;;;42.58;18.30;;;;;;;-0.32;88.49;102192.22;4923020;28;20057;-74
2021/11/11 01:08:53;;;;;;;34.03;17.63;;;;;;;-0.30;88.68;102190.47;4928335;28;20320;-74
2021/11/11 01:11:19;;;;;;;36.70;17.23;;;;;;;-0.28;88.58;102191.25;5006202;28;20110;-72
2021/11/11 01:13:44;;;;;;;30.73;16.65;;;;;;;-0.27;88.56;102187.78;5015927;28;20130;-74
2021/11/11 01:16:10;;;;;;;32.28;16.67;;;;;;;-0.26;88.80;102188.66;4974290;28;20484;-74
2021/11/11 01:18:36;;;;;;;36.10;16.88;;;;;;;-0.26;88.44;102192.03;4992305;28;20035;-74
2021/11/11 01:21:02;;;;;;;33.63;17.10;;;;;;;-0.30;88.39;102189.59;4935332;28;20454;-74
2021/11/11 01:23:28;;;;;;;35.03;17.92;;;;;;;-0.34;88.68;102188.91;4976606;28;20040;-74
2021/11/11 01:25:54;;;;;;;32.83;15.90;;;;;;;-0.38;88.28;102194.13;5010614;28;20027;-74
2021/11/11 01:28:24;;;;;;;42.45;17.35;;;;;;;-0.42;88.37;102185.75;4978839;28;20131;-73
2021/11/11 01:30:50;;;;;;;34.65;16.73;;;;;;;-0.43;88.67;102182.38;5002591;28;20555;-74
2021/11/11 01:33:28;;;;;;;32.38;16.58;;;;;;;-0.42;88.29;102175.56;5004611;28;20032;-74
2021/11/11 01:35:54;;;;;;;36.80;17.58;;;;;;;-0.40;88.41;102176.34;4975947;28;20039;-74
2021/11/11 01:38:27;;;;;;;36.90;17.13;;;;;;;-0.38;88.63;102172.03;4940799;28;20023;-74
2021/11/11 01:40:55;;;;;;;37.97;17.90;;;;;;;-0.37;88.37;102173.72;5008589;28;20047;-74
2021/11/11 01:43:24;;;;;;;37.15;17.25;;;;;;;-0.37;88.28;102168.59;4989210;28;20658;-73
2021/11/11 01:45:50;;;;;;;43.47;17.85;;;;;;;-0.36;88.12;102162.59;5007519;28;20032;-73
2021/11/11 01:48:20;;;;;;;36.15;16.23;;;;;;;-0.36;88.29;102159.22;5024817;28;20435;-74
2021/11/11 01:50:46;;;;;;;39.03;17.90;;;;;;;-0.38;88.30;102156.72;5009470;28;20109;-74
2021/11/11 01:53:13;;;;;;;37.50;17.90;;;;;;;-0.37;88.97;102162.69;4944227;28;20048;-74
2021/11/11 01:55:42;;;;;;;36.03;18.88;;;;;;;-0.38;88.67;102161.00;5009703;28;20254;-74
2021/11/11 01:58:08;;;;;;;38.58;17.08;;;;;;;-0.41;88.92;102172.16;5001485;28;20130;-74
2021/11/11 02:00:42;;;;;;;34.97;17.05;;;;;;;-0.44;89.18;102177.34;5009348;28;20024;-73
2021/11/11 02:03:09;;;;;;;43.72;17.67;;;;;;;-0.44;88.86;102182.44;5024057;28;20081;-74
2021/11/11 02:05:55;;;;;;;34.00;16.88;;;;;;;-0.50;88.75;102169.91;4936225;28;20520;-74
2021/11/11 02:08:28;;;;;;;32.42;16.95;;;;;;;-0.56;88.45;102175.22;4989191;28;20489;-74
2021/11/11 02:10:55;;;;;;;35.20;16.70;;;;;;;-0.62;88.84;102176.25;5018765;28;20373;-74
2021/11/11 02:13:21;;;;;;;39.97;16.65;;;;;;;-0.63;89.10;102174.56;5022335;28;20027;-73
2021/11/11 02:15:47;;;;;;;31.98;16.55;;;;;;;-0.63;89.41;102167.75;5015649;28;20237;-74
2021/11/11 02:18:14;;;;;;;40.03;17.85;;;;;;;-0.60;89.53;102171.94;5022920;28;20353;-74
2021/11/11 02:20:42;;;;;;;39.92;18.88;;;;;;;-0.67;88.68;102168.72;5023577;28;20032;-73
2021/11/11 02:23:20;;;;;;;34.63;16.92;;;;;;;-0.75;89.08;102163.06;4991504;28;20034;-73
2021/11/11 02:25:58;;;;;;;44.13;17.67;;;;;;;-0.75;88.69;102163.06;4991035;28;20045;-74
2021/11/11 02:28:30;;;;;;;45.33;18.70;;;;;;;-0.77;89.35;102163.97;5007754;28;20427;-74
2021/11/11 02:30:56;;;;;;;40.67;17.75;;;;;;;-0.80;89.25;102162.38;4987411;28;20480;-73
2021/11/11 02:33:33;;;;;;;34.92;17.63;;;;;;;-0.81;89.00;102164.09;5002528;28;20032;-74
2021/11/11 02:35:59;;;;;;;38.10;15.93;;;;;;;-0.83;89.24;102170.94;5020572;28;20032;-74
2021/11/11 02:38:28;;;;;;;38.05;17.42;;;;;;;-0.86;88.92;102172.75;5006567;28;20331;-73
2021/11/11 02:40:54;;;;;;;33.63;17.67;;;;;;;-0.86;89.23;102172.75;5000095;28;20230;-73
2021/11/11 02:43:20;;;;;;;38.30;16.95;;;;;;;-0.85;89.18;102166.75;5008264;28;20035;-74
2021/11/11 02:45:49;;;;;;;42.85;17.17;;;;;;;-0.83;89.00;102177.75;5004397;28;20028;-73
2021/11/11 02:48:20;;;;;;;37.53;17.55;;;;;;;-0.82;89.15;102172.59;5007915;28;20297;-74
2021/11/11 02:50:53;;;;;;;34.65;17.83;;;;;;;-0.81;88.99;102170.88;5012119;28;20467;-74
2021/11/11 02:53:20;;;;;;;39.50;19.05;;;;;;;-0.83;88.94;102178.59;4935838;28;20028;-74
2021/11/11 02:55:49;;;;;;;39.92;17.80;;;;;;;-0.82;88.87;102179.41;5000958;28;20439;-73
2021/11/11 02:58:16;;;;;;;45.85;18.40;;;;;;;-0.79;89.30;102176.78;5024634;28;20043;-74
2021/11/11 03:00:47;;;;;;;43.67;17.98;;;;;;;-0.78;89.07;102183.53;5009116;28;20492;-74
2021/11/11 03:03:15;;;;;;;40.72;20.60;;;;;;;-0.76;89.11;102183.47;4997764;28;20036;-73
2021/11/11 03:05:41;;;;;;;44.40;20.20;;;;;;;-0.82;89.06;102181.97;4999089;28;20581;-73
2021/11/11 03:08:09;;;;;;;39.78;19.27;;;;;;;-0.87;88.95;102178.72;5000951;28;20123;-73
2021/11/11 03:10:42;;;;;;;43.05;20.58;;;;;;;-0.89;89.10;102175.41;5006707;28;20122;-73
2021/11/11 03:13:11;;;;;;;46.65;19.60;;;;;;;-0.89;89.27;102181.31;5012239;28;20034;-74
2021/11/11 03:15:38;;;;;;;41.33;18.65;;;;;;;-0.87;89.22;102181.28;5023185;28;20028;-74
2021/11/11 03:18:05;;;;;;;38.20;18.20;;;;;;;-0.86;88.98;102183.78;5005676;28;20042;-74
2021/11/11 03:20:31;;;;;;;43.30;18.42;;;;;;;-0.86;89.61;102193.97;5012506;28;20026;-74
2021/11/11 03:22:57;;;;;;;37.17;18.85;;;;;;;-0.85;89.20;102176.97;5008217;28;20026;-74
2021/11/11 03:25:30;;;;;;;40.30;18.30;;;;;;;-0.84;89.31;102179.47;5019594;28;20031;-74
2021/11/11 03:27:56;;;;;;;38.63;18.40;;;;;;;-0.88;89.32;102179.63;5007172;28;20039;-74
2021/11/11 03:30:27;;;;;;;45.50;19.50;;;;;;;-0.90;89.30;102181.38;5020690;28;20447;-74
2021/11/11 03:32:54;;;;;;;43.50;18.38;;;;;;;-0.94;89.29;102174.69;4929389;28;20042;-74
2021/11/11 03:35:22;;;;;;;39.75;18.05;;;;;;;-0.92;89.35;102178.03;4983870;28;20055;-73
2021/11/11 03:37:50;;;;;;;41.92;18.45;;;;;;;-0.96;89.03;102177.31;5013857;28;20574;-74
2021/11/11 03:40:24;;;;;;;38.10;17.35;;;;;;;-0.98;89.55;102182.44;4999188;28;20028;-73
2021/11/11 03:42:52;;;;;;;46.60;19.55;;;;;;;-0.97;89.20;102183.28;5009472;28;20485;-74
2021/11/11 03:45:21;;;;;;;42.30;18.17;;;;;;;-1.04;88.62;102182.63;4991119;28;20093;-74
2021/11/11 03:47:48;;;;;;;35.85;17.52;;;;;;;-1.08;89.13;102175.97;5029115;28;20112;-74
2021/11/11 03:50:15;;;;;;;38.20;17.25;;;;;;;-1.06;89.70;102186.09;4985732;28;20079;-74
2021/11/11 03:52:42;;;;;;;35.88;17.70;;;;;;;-1.05;89.88;102178.41;5018065;28;20028;-74
2021/11/11 03:55:11;;;;;;;39.10;16.98;;;;;;;-1.05;89.35;102183.50;5019226;28;20030;-74
2021/11/11 03:57:37;;;;;;;45.97;19.48;;;;;;;-1.06;89.67;102188.66;5003289;28;20369;-74
2021/11/11 04:00:07;;;;;;;52.65;22.00;;;;;;;-1.09;89.76;102188.72;5005398;28;20041;-74
2021/11/11 04:02:40;;;;;;;56.45;22.25;;;;;;;-1.12;89.71;102192.22;4981917;28;20416;-74
2021/11/11 04:05:08;;;;;;;46.00;22.13;;;;;;;-1.13;89.56;102193.09;5005690;28;20032;-74
2021/11/11 04:07:39;;;;;;;49.72;21.75;;;;;;;-1.15;89.59;102194.84;5019561;28;20020;-75
2021/11/11 04:10:06;;;;;;;47.67;20.83;;;;;;;-1.14;89.27;102198.25;5012730;28;20045;-74
2021/11/11 04:12:31;;;;;;;57.25;25.20;;;;;;;-1.14;89.15;102185.50;5007111;28;20051;-73
2021/11/11 04:14:57;;;;;;;56.15;23.02;;;;;;;-1.21;89.21;102188.22;4967249;28;20032;-75
2021/11/11 04:17:24;;;;;;;44.83;22.40;;;;;;;-1.24;89.42;102190.06;4998422;28;20243;-74
2021/11/11 04:19:50;;;;;;;54.88;23.35;;;;;;;-1.24;89.66;102180.69;5022381;28;20036;-75
2021/11/11 04:22:15;;;;;;;46.78;21.67;;;;;;;-1.22;89.78;102189.13;5005465;28;20024;-73
2021/11/11 04:24:45;;;;;;;45.28;22.48;;;;;;;-1.23;89.49;102196.78;5006656;28;20122;-75
2021/11/11 04:27:18;;;;;;;51.65;22.73;;;;;;;-1.22;89.91;102194.22;5000275;28;20055;-75
2021/11/11 04:29:54;;;;;;;47.25;21.77;;;;;;;-1.24;89.46;102190.88;4990127;28;20122;-74
2021/11/11 04:32:20;;;;;;;48.33;23.10;;;;;;;-1.27;89.91;102185.88;4988178;28;20040;-74
2021/11/11 04:34:51;;;;;;;52.65;21.35;;;;;;;-1.27;89.57;102190.97;4994745;28;20564;-75
2021/11/11 04:37:33;;;;;;;46.45;21.20;;;;;;;-1.27;89.42;102190.13;4980711;28;20028;-75
2021/11/11 04:43:04;;;;;;;39.65;17.92;;;;;;;-1.35;89.23;102203.09;4989716;28;20032;-75
2021/11/11 04:45:50;;;;;;;38.30;17.65;;;;;;;-1.35;89.51;102205.63;5003800;28;20040;-75
2021/11/11 04:48:43;;;;;;;36.55;18.05;;;;;;;-1.37;89.53;102198.03;5002991;28;20072;-75
2021/11/11 04:59:47;;;;;;;41.15;18.50;;;;;;;-1.35;89.38;102192.09;5000880;28;20027;-75
2021/11/11 05:04:41;;;;;;;39.03;16.90;;;;;;;-1.35;89.50;102202.25;4931302;28;20389;-75
2021/11/11 05:07:08;;;;;;;37.17;16.52;;;;;;;-1.37;89.63;102205.66;4981660;28;20038;-74
2021/11/11 05:09:34;;;;;;;35.97;17.48;;;;;;;-1.39;89.61;102207.44;5008407;28;20036;-75
2021/11/11 05:11:59;;;;;;;41.70;17.27;;;;;;;-1.42;89.74;102210.06;4985650;28;20033;-74
2021/11/11 05:14:26;;;;;;;39.42;16.48;;;;;;;-1.43;89.81;102210.09;4998771;28;20491;-75
2021/11/11 05:16:51;;;;;;;37.67;16.08;;;;;;;-1.43;89.92;102210.09;5005863;28;20050;-75
2021/11/11 05:19:20;;;;;;;32.53;16.58;;;;;;;-1.44;89.99;102211.81;4997623;28;20572;-74
2021/11/11 05:21:45;;;;;;;38.95;17.92;;;;;;;-1.44;90.13;102216.91;5007884;28;20066;-75
2021/11/11 05:24:11;;;;;;;38.08;16.95;;;;;;;-1.44;90.05;102224.53;5007380;28;20390;-75
2021/11/11 05:26:40;;;;;;;36.00;16.05;;;;;;;-1.48;89.81;102220.41;4992854;28;20027;-76
2021/11/11 05:29:08;;;;;;;34.75;16.15;;;;;;;-1.51;89.97;102220.50;5007730;28;20397;-74
2021/11/11 05:31:35;;;;;;;32.97;17.17;;;;;;;-1.52;90.05;102213.75;4976818;28;20181;-75
2021/11/11 05:34:01;;;;;;;32.00;16.17;;;;;;;-1.50;89.96;102213.72;5006340;28;20046;-75
2021/11/11 05:36:27;;;;;;;34.15;15.85;;;;;;;-1.49;90.36;102208.56;5006376;28;20063;-75
2021/11/11 05:38:53;;;;;;;34.85;16.58;;;;;;;-1.48;90.12;102197.50;5002073;28;20043;-75
2021/11/11 05:41:20;;;;;;;37.70;17.35;;;;;;;-1.48;90.08;102201.78;5020475;28;20130;-75
2021/11/11 05:43:49;;;;;;;41.08;18.65;;;;;;;-1.51;89.83;102202.69;4988051;28;20039;-75
2021/11/11 05:46:16;;;;;;;37.72;17.23;;;;;;;-1.54;89.75;102205.31;4993031;28;20467;-76
2021/11/11 05:48:45;;;;;;;37.88;16.17;;;;;;;-1.55;89.33;102211.28;5006819;28;20037;-75
2021/11/11 05:51:10;;;;;;;36.33;17.00;;;;;;;-1.57;89.42;102215.59;4937055;28;20395;-76
2021/11/11 05:53:36;;;;;;;34.72;16.98;;;;;;;-1.62;89.76;102214.88;5025920;28;20039;-76
2021/11/11 05:56:02;;;;;;;36.28;16.75;;;;;;;-1.64;90.09;102222.56;4992237;28;20036;-76
2021/11/11 05:58:28;;;;;;;37.50;16.55;;;;;;;-1.61;90.32;102221.63;5025726;28;20028;-76
2021/11/11 06:00:54;;;;;;;40.28;18.52;;;;;;;-1.61;90.29;102226.72;5005773;28;20155;-76
2021/11/11 06:03:27;;;;;;;36.17;16.63;;;;;;;-1.63;90.39;102223.38;5025259;28;20035;-75
2021/11/11 06:05:59;;;;;;;37.43;16.60;;;;;;;-1.62;90.55;102227.59;4998779;28;20454;-76
2021/11/11 06:08:29;;;;;;;40.85;16.95;;;;;;;-1.61;89.97;102239.44;5006106;28;20031;-75
2021/11/11 06:10:55;;;;;;;38.70;15.63;;;;;;;-1.65;90.32;102236.16;5001750;28;20142;-75
2021/11/11 06:13:22;;;;;;;41.38;16.42;;;;;;;-1.65;90.12;102242.94;4932184;28;20042;-76
2021/11/11 06:15:47;;;;;;;37.58;17.08;;;;;;;-1.66;90.35;102239.56;4978559;28;20051;-75
2021/11/11 06:18:13;;;;;;;33.22;15.32;;;;;;;-1.68;90.37;102238.75;4930848;28;20318;-76
2021/11/11 06:20:44;;;;;;;39.40;16.80;;;;;;;-1.67;90.50;102248.06;5006082;28;20036;-76
2021/11/11 06:23:11;;;;;;;36.28;16.35;;;;;;;-1.66;90.48;102238.72;5008210;28;20028;-75
2021/11/11 06:25:40;;;;;;;34.58;15.80;;;;;;;-1.66;90.47;102242.09;5000521;28;20024;-76
2021/11/11 06:28:07;;;;;;;34.85;16.35;;;;;;;-1.64;90.38;102245.47;5013685;28;20403;-76
2021/11/11 06:30:33;;;;;;;41.15;17.27;;;;;;;-1.65;90.36;102248.88;5009502;28;20162;-77
2021/11/11 06:32:58;;;;;;;32.33;16.60;;;;;;;-1.65;90.49;102258.22;4989434;28;20039;-76
2021/11/11 06:35:29;;;;;;;33.45;16.65;;;;;;;-1.63;90.30;102261.56;5008714;28;20397;-76
2021/11/11 06:37:55;;;;;;;38.47;17.23;;;;;;;-1.63;90.37;102270.00;4991109;28;20045;-75
2021/11/11 06:40:21;;;;;;;40.22;17.55;;;;;;;-1.63;89.99;102264.91;4987456;28;20390;-76
2021/11/11 06:42:46;;;;;;;34.47;17.08;;;;;;;-1.61;90.22;102260.63;5017832;28;20058;-76
2021/11/11 06:45:14;;;;;;;41.83;17.25;;;;;;;-1.63;89.88;102264.91;5014454;28;20054;-77
2021/11/11 06:47:40;;;;;;;43.30;17.95;;;;;;;-1.64;90.36;102262.41;4988191;28;20070;-76
2021/11/11 06:50:06;;;;;;;35.83;16.38;;;;;;;-1.64;90.52;102267.50;5024460;28;20037;-77
2021/11/11 06:52:32;;;;;;;33.15;16.50;;;;;;;-1.63;90.56;102261.56;5006522;28;20059;-77
2021/11/11 06:54:57;;;;;;;35.92;18.50;;;;;;;-1.61;90.29;102267.44;4946238;28;20048;-76
2021/11/11 06:57:23;;;;;;;38.60;18.42;;;;;;;-1.61;90.59;102272.50;5026453;28;20112;-76
2021/11/11 06:59:55;;;;;;;39.10;17.00;;;;;;;-1.62;90.26;102278.47;4991239;28;20104;-75
2021/11/11 07:02:21;;;;;;;37.47;16.17;;;;;;;-1.63;90.43;102280.19;5008709;28;20032;-76
2021/11/11 07:04:48;;;;;;;39.70;16.52;;;;;;;-1.64;90.58;102275.13;5032883;28;20036;-76
2021/11/11 07:07:13;;;;;;;46.35;17.60;;;;;;;-1.63;90.64;102274.28;5016322;28;20030;-77
2021/11/11 07:09:39;;;;;;;37.83;17.65;;;;;;;-1.62;90.56;102281.88;5008599;28;20032;-76
2021/11/11 07:12:04;;;;;;;33.78;16.65;;;;;;;-1.62;90.42;102281.88;4924342;28;20117;-76
2021/11/11 07:14:30;;;;;;;45.53;17.02;;;;;;;-1.60;90.38;102285.19;4991847;28;20062;-76
2021/11/11 07:16:56;;;;;;;42.05;16.75;;;;;;;-1.57;90.76;102281.72;5006712;28;20047;-75
2021/11/11 07:19:21;;;;;;;42.33;18.45;;;;;;;-1.55;90.27;102284.25;5005509;28;20467;-76
2021/11/11 07:21:47;;;;;;;39.22;17.23;;;;;;;-1.54;90.42;102285.88;5004522;28;20067;-76
2021/11/11 07:24:13;;;;;;;41.17;17.73;;;;;;;-1.54;90.89;102289.28;5006436;28;20031;-75
2021/11/11 07:26:38;;;;;;;43.35;17.48;;;;;;;-1.52;90.69;102286.72;4928754;28;20035;-76
2021/11/11 07:29:04;;;;;;;41.13;19.13;;;;;;;-1.51;90.48;102301.91;5004017;28;20069;-77
2021/11/11 07:31:30;;;;;;;45.05;18.27;;;;;;;-1.42;90.89;102303.38;4980786;28;20077;-77
2021/11/11 07:33:55;;;;;;;50.38;19.10;;;;;;;-1.39;90.93;102303.31;4991661;28;20044;-76
2021/11/11 07:36:21;;;;;;;42.53;18.13;;;;;;;-1.44;91.32;102305.97;4958933;28;20119;-76
2021/11/11 07:38:46;;;;;;;41.38;18.92;;;;;;;-1.42;91.79;102311.03;4969036;28;20500;-77
2021/11/11 07:41:12;;;;;;;45.80;19.17;;;;;;;-1.32;92.13;102309.88;5023538;28;20028;-77
2021/11/11 07:43:37;;;;;;;43.58;19.27;;;;;;;-1.32;92.29;102306.50;4987869;28;20078;-77
2021/11/11 07:46:07;;;;;;;53.42;18.45;;;;;;;-1.28;92.55;102295.34;5000195;28;20035;-76
2021/11/11 07:48:34;;;;;;;41.08;18.73;;;;;;;-1.25;92.65;102298.66;5019577;28;20056;-77
2021/11/11 07:51:00;;;;;;;41.88;19.23;;;;;;;-1.03;92.92;102313.34;4998994;28;20024;-76
2021/11/11 07:53:29;;;;;;;49.45;20.95;;;;;;;-0.92;93.65;102308.78;4992133;28;21496;-78
2021/11/11 07:55:55;;;;;;;56.28;21.77;;;;;;;-0.84;93.62;102311.09;5006894;28;20094;-77
2021/11/11 07:58:22;;;;;;;54.55;20.73;;;;;;;-0.81;94.29;102310.97;4939514;28;20059;-78
2021/11/11 08:00:48;;;;;;;55.85;22.35;;;;;;;-0.79;94.36;102311.81;5020353;28;20428;-78
2021/11/11 08:03:13;;;;;;;48.13;21.17;;;;;;;-0.74;95.20;102311.66;4992823;28;20035;-77
2021/11/11 08:05:40;;;;;;;54.20;24.90;;;;;;;-0.58;95.03;102320.50;4991823;28;20883;-77
2021/11/11 08:08:06;;;;;;;84.13;39.50;;;;;;;-0.42;95.06;102315.75;5010402;28;20039;-78
2021/11/11 08:10:32;;;;;;;66.82;32.22;;;;;;;-0.35;95.15;102317.25;5010119;28;20038;-78
2021/11/11 08:12:57;;;;;;;134.55;70.10;;;;;;;-0.31;94.74;102323.91;5006149;28;20429;-77
2021/11/11 08:15:23;;;;;;;64.35;34.88;;;;;;;-0.30;94.95;102317.94;4922394;28;20070;-76
2021/11/11 08:17:49;;;;;;;68.97;38.40;;;;;;;-0.19;95.08;102322.66;4926630;28;20039;-76
2021/11/11 08:20:16;;;;;;;54.03;26.40;;;;;;;-0.05;94.68;102332.44;5002596;28;20067;-77
2021/11/11 08:22:43;;;;;;;55.50;28.27;;;;;;;-0.01;94.78;102327.19;4999330;28;20586;-76
2021/11/11 08:25:11;;;;;;;55.15;23.80;;;;;;;0.11;94.40;102323.38;4988731;28;20063;-77
2021/11/11 08:27:38;;;;;;;64.20;22.70;;;;;;;0.28;94.27;102324.53;4989471;28;20043;-75
2021/11/11 08:30:09;;;;;;;54.20;21.58;;;;;;;0.45;94.45;102322.25;5010741;28;20035;-76
2021/11/11 08:32:35;;;;;;;52.53;20.70;;;;;;;0.65;93.98;102320.72;4985888;28;20053;-76
2021/11/11 08:35:01;;;;;;;47.85;21.33;;;;;;;0.88;93.72;102317.34;5007561;28;20039;-76
2021/11/11 08:37:27;;;;;;;51.03;21.38;;;;;;;1.12;92.53;102323.28;5003462;28;20032;-77
2021/11/11 08:39:52;;;;;;;49.20;22.25;;;;;;;1.23;91.34;102320.31;5007404;28;20122;-76
2021/11/11 08:42:18;;;;;;;61.85;26.48;;;;;;;1.36;91.21;102316.41;4999651;28;20051;-76
2021/11/11 08:44:45;;;;;;;63.67;25.83;;;;;;;1.38;90.98;102317.16;5007696;28;20381;-76
2021/11/11 08:47:12;;;;;;;59.33;24.98;;;;;;;1.44;91.08;102316.09;5007884;28;20489;-77
2021/11/11 08:49:39;;;;;;;59.83;22.70;;;;;;;1.50;90.96;102316.69;5012723;28;20040;-77
2021/11/11 08:52:05;;;;;;;50.55;20.52;;;;;;;1.58;90.23;102318.94;5007082;28;20471;-76
2021/11/11 08:54:31;;;;;;;57.60;21.45;;;;;;;1.53;90.28;102323.41;4921996;28;20101;-77
2021/11/11 08:56:57;;;;;;;41.17;20.00;;;;;;;1.56;90.57;102323.28;4925249;28;20044;-77
2021/11/11 08:59:26;;;;;;;46.78;19.45;;;;;;;1.53;90.79;102320.84;5005651;28;20028;-76
2021/11/11 09:01:54;;;;;;;46.17;20.35;;;;;;;1.50;91.26;102323.53;4998661;28;20072;-76
2021/11/11 09:04:21;;;;;;;56.40;21.40;;;;;;;1.48;91.86;102330.44;4977073;28;20040;-76
2021/11/11 09:06:47;;;;;;;47.83;21.15;;;;;;;1.45;92.21;102321.16;5010993;28;20044;-77
2021/11/11 09:09:13;;;;;;;46.67;19.88;;;;;;;1.44;92.91;102323.78;4997013;28;20109;-77
2021/11/11 09:11:40;;;;;;;47.28;20.75;;;;;;;1.66;92.74;102323.78;4924831;28;20537;-77
2021/11/11 09:14:07;;;;;;;51.50;21.10;;;;;;;1.68;92.62;102311.75;4928744;28;20063;-77
2021/11/11 09:16:33;;;;;;;49.60;20.33;;;;;;;1.68;93.19;102317.69;4991513;28;20381;-77
2021/11/11 09:18:59;;;;;;;52.83;21.65;;;;;;;1.79;93.04;102309.59;4929293;28;20142;-76
2021/11/11 09:21:26;;;;;;;50.72;21.63;;;;;;;1.89;93.12;102320.28;5011211;28;20035;-77
2021/11/11 09:23:52;;;;;;;55.72;21.15;;;;;;;2.01;92.72;102311.25;4992630;28;20059;-78
2021/11/11 09:26:18;;;;;;;60.60;23.38;;;;;;;2.06;93.23;102311.91;4926564;28;20043;-77
2021/11/11 09:28:47;;;;;;;62.38;22.65;;;;;;;2.20;93.03;102309.59;5017894;28;20044;-77
2021/11/11 09:31:13;;;;;;;54.58;22.27;;;;;;;2.16;93.11;102307.22;5018906;28;20115;-78
2021/11/11 09:33:40;;;;;;;57.72;23.60;;;;;;;2.26;93.25;102295.69;4926566;28;20070;-77
2021/11/11 09:36:06;;;;;;;62.00;22.52;;;;;;;2.32;93.14;102303.97;5010918;28;20043;-78
2021/11/11 09:38:31;;;;;;;53.45;22.45;;;;;;;2.48;93.20;102298.16;4932039;28;20036;-78
2021/11/11 09:40:57;;;;;;;62.22;24.67;;;;;;;2.50;92.94;102299.75;5010881;28;20040;-77
2021/11/11 09:43:24;;;;;;;65.50;22.45;;;;;;;2.53;92.70;102286.00;4996548;28;20062;-77
2021/11/11 09:45:50;;;;;;;62.17;26.33;;;;;;;2.61;92.77;102277.97;5006122;28;20441;-78
2021/11/11 09:48:17;;;;;;;56.85;22.15;;;;;;;2.80;92.23;102288.25;5010516;28;20067;-78
2021/11/11 09:50:45;;;;;;;53.58;23.33;;;;;;;2.91;92.14;102283.47;5009094;28;20153;-77
2021/11/11 09:53:20;;;;;;;57.58;22.48;;;;;;;2.99;91.59;102290.78;5009014;28;20047;-77
2021/11/11 09:58:41;;;;;;;56.85;23.42;;;;;;;3.03;91.58;102289.75;4927283;28;20054;-75
2021/11/11 10:01:21;;;;;;;62.63;22.88;;;;;;;3.12;91.50;102284.19;4989384;28;20036;-75
2021/11/11 10:03:48;;;;;;;57.92;21.92;;;;;;;3.35;90.51;102284.84;5010235;28;20062;-77
2021/11/11 10:06:21;;;;;;;58.80;24.15;;;;;;;3.39;90.54;102286.38;4997697;28;20146;-76
2021/11/11 10:08:50;;;;;;;61.88;23.17;;;;;;;3.37;91.49;102283.03;5007945;28;20207;-76
2021/11/11 10:11:43;;;;;;;61.63;23.52;;;;;;;3.43;91.95;102282.78;5000095;28;20039;-77
2021/11/11 10:14:14;;;;;;;57.70;23.90;;;;;;;3.56;90.54;102280.44;5009885;28;20492;-77
2021/11/11 10:16:53;;;;;;;63.72;25.27;;;;;;;3.51;91.11;102283.22;5006171;28;20028;-78
2021/11/11 10:19:19;;;;;;;61.03;25.27;;;;;;;3.44;91.21;102281.84;4929892;28;20039;-76
2021/11/11 10:21:49;;;;;;;64.63;25.38;;;;;;;3.40;92.06;102281.16;5027660;28;20028;-78
2021/11/11 10:24:27;;;;;;;60.28;24.60;;;;;;;3.39;92.47;102284.66;5001969;28;20264;-75
2021/11/11 10:27:04;;;;;;;60.63;26.08;;;;;;;3.47;92.59;102279.16;4992225;28;20110;-77
2021/11/11 10:29:47;;;;;;;67.82;27.80;;;;;;;3.48;92.60;102279.09;4991429;28;20058;-77
2021/11/11 10:32:15;;;;;;;60.58;25.70;;;;;;;3.50;92.84;102276.41;4981654;28;20559;-76
2021/11/11 10:34:51;;;;;;;56.10;26.40;;;;;;;3.48;92.57;102273.09;5002740;28;20063;-77
2021/11/11 10:37:17;;;;;;;70.72;27.23;;;;;;;3.46;92.82;102278.31;4935338;28;20510;-77
2021/11/11 10:39:59;;;;;;;82.40;29.27;;;;;;;3.60;93.64;102280.22;4995402;28;20054;-78
2021/11/11 10:42:27;;;;;;;67.88;27.08;;;;;;;3.68;93.29;102282.41;5003360;28;20127;-76
2021/11/11 10:44:56;;;;;;;64.28;28.38;;;;;;;3.79;93.37;102275.00;4930818;28;20040;-77
2021/11/11 10:47:25;;;;;;;71.50;29.50;;;;;;;3.87;92.68;102270.31;5024813;28;20035;-76
2021/11/11 10:49:51;;;;;;;67.32;29.67;;;;;;;4.06;92.66;102270.22;4937379;28;20495;-78
2021/11/11 10:52:25;;;;;;;71.68;28.90;;;;;;;4.18;92.45;102266.22;4977449;28;20067;-77
2021/11/11 10:55:33;;;;;;;79.40;29.40;;;;;;;4.41;91.82;102257.31;4974134;28;20101;-77
2021/11/11 10:58:10;;;;;;;64.20;28.15;;;;;;;4.39;91.95;102260.88;4943230;28;20121;-77
2021/11/11 11:00:47;;;;;;;74.28;27.73;;;;;;;4.51;92.05;102267.94;4995155;28;20044;-77
2021/11/11 11:03:18;;;;;;;67.15;27.52;;;;;;;4.68;90.84;102261.91;5010765;28;20085;-78
2021/11/11 11:05:53;;;;;;;66.55;28.55;;;;;;;4.78;90.30;102262.25;4987839;28;20082;-76
2021/11/11 11:08:21;;;;;;;71.65;28.48;;;;;;;4.75;90.13;102252.16;4942810;28;20048;-78
2021/11/11 11:10:50;;;;;;;68.68;28.65;;;;;;;5.04;89.63;102261.66;4936191;28;20108;-76
2021/11/11 11:13:19;;;;;;;67.47;26.98;;;;;;;5.11;88.56;102256.19;5013358;28;20116;-77
2021/11/11 11:15:50;;;;;;;62.83;27.63;;;;;;;5.15;87.79;102258.50;4942369;28;20131;-76
2021/11/11 11:18:21;;;;;;;61.03;26.08;;;;;;;5.28;87.84;102252.69;4991219;28;20450;-78
2021/11/11 11:20:47;;;;;;;63.50;27.20;;;;;;;5.26;87.68;102252.75;5009754;28;20068;-76
2021/11/11 11:23:19;;;;;;;68.43;26.60;;;;;;;5.29;88.20;102249.19;4971615;28;20573;-78
2021/11/11 11:26:07;;;;;;;70.78;27.27;;;;;;;5.30;88.26;102250.84;4933665;28;20153;-78
2021/11/11 11:28:48;;;;;;;55.17;26.40;;;;;;;5.38;87.47;102251.25;5038054;28;20125;-79
2021/11/11 11:31:23;;;;;;;54.67;24.55;;;;;;;5.48;88.71;102249.78;4993587;28;20046;-78
2021/11/11 11:33:49;;;;;;;60.45;26.65;;;;;;;5.58;88.06;102250.13;4941157;28;20032;-78